Time;durP1;ratioP1;P1;durP2;ratioP2;P2;SDS_P1;SDS_P2;PMS_P1;PMS_P2;Temp;Humidity;BMP_temperature;BMP_pressure;BME280_temperature;BME280_humidity;BME280_pressure;Samples;Min_cycle;Max_cycle;Signal;HPM_P1;HPM_P2
2021/11/01 00:02:20;;;;;;;21.67;2.45;;;;;;;;;;5008897;28;20033;-74
2021/11/01 00:04:46;;;;;;;7.68;1.73;;;;;;;;;;5010152;28;20022;-74
2021/11/01 00:07:13;;;;;;;9.55;1.40;;;;;;;;;;5003559;28;20079;-74
2021/11/01 00:09:39;;;;;;;10.65;1.67;;;;;;;;;;5003070;28;20490;-74
2021/11/01 00:12:06;;;;;;;15.00;2.60;;;;;;;;;;5001072;28;20029;-74
2021/11/01 00:14:32;;;;;;;18.17;1.85;;;;;;;;;;5007152;28;20026;-74
2021/11/01 00:16:58;;;;;;;15.88;1.52;;;;;;;;;;5003535;28;20078;-74
2021/11/01 00:19:24;;;;;;;13.50;2.03;;;;;;;;;;5010026;28;20029;-74
2021/11/01 00:21:51;;;;;;;12.23;1.60;;;;;;;;;;5003220;28;20041;-74
2021/11/01 00:24:16;;;;;;;7.45;1.67;;;;;;;;;;5000660;28;20022;-74
2021/11/01 00:26:42;;;;;;;22.63;4.07;;;;;;;;;;5011318;28;20065;-74
2021/11/01 00:29:09;;;;;;;12.50;1.73;;;;;;;;;;4997776;28;20526;-74
2021/11/01 00:31:35;;;;;;;17.38;2.05;;;;;;;;;;5010987;28;20045;-74
2021/11/01 00:34:01;;;;;;;8.50;1.10;;;;;;;;;;4994544;28;20031;-74
2021/11/01 00:36:27;;;;;;;16.00;2.10;;;;;;;;;;5006641;28;21215;-74
2021/11/01 00:38:53;;;;;;;11.98;1.23;;;;;;;;;;5011516;28;20109;-74
2021/11/01 00:41:19;;;;;;;7.90;1.88;;;;;;;;;;5006106;28;20035;-74
2021/11/01 00:43:45;;;;;;;12.45;1.70;;;;;;;;;;5007038;28;20033;-74
2021/11/01 00:46:11;;;;;;;18.08;2.42;;;;;;;;;;5010168;28;20033;-74
2021/11/01 00:48:38;;;;;;;10.45;1.90;;;;;;;;;;5002193;28;20050;-74
2021/11/01 00:51:04;;;;;;;8.93;1.80;;;;;;;;;;5023083;28;20041;-74
2021/11/01 00:53:32;;;;;;;12.88;1.60;;;;;;;;;;4998793;28;20030;-74
2021/11/01 00:55:58;;;;;;;7.25;1.13;;;;;;;;;;5007590;28;20025;-74
2021/11/01 00:58:25;;;;;;;11.85;1.30;;;;;;;;;;4999181;28;20038;-74
2021/11/01 01:00:52;;;;;;;10.77;1.77;;;;;;;;;;5007199;28;20029;-74
2021/11/01 01:03:18;;;;;;;9.65;1.88;;;;;;;;;;4998480;28;20022;-74
2021/11/01 01:05:44;;;;;;;8.65;1.83;;;;;;;;;;5008206;28;20018;-74
2021/11/01 01:08:12;;;;;;;9.75;1.73;;;;;;;;;;4999113;28;20387;-74
2021/11/01 01:10:39;;;;;;;12.73;2.28;;;;;;;;;;5001139;28;20022;-74
2021/11/01 01:13:05;;;;;;;17.75;3.00;;;;;;;;;;5008015;28;20105;-74
2021/11/01 01:15:37;;;;;;;17.67;1.10;;;;;;;;;;5003230;28;20026;-77
2021/11/01 01:18:09;;;;;;;12.45;1.92;;;;;;;;;;5009411;28;20025;-76
2021/11/01 01:20:34;;;;;;;9.18;1.63;;;;;;;;;;5009187;28;20437;-74
2021/11/01 01:23:00;;;;;;;8.40;1.25;;;;;;;;;;5001870;28;20022;-74
2021/11/01 01:25:36;;;;;;;8.68;1.08;;;;;;;;;;5004716;28;20382;-74
2021/11/01 01:28:03;;;;;;;9.55;2.17;;;;;;;;;;4987933;28;20061;-74
2021/11/01 01:30:29;;;;;;;3.72;0.82;;;;;;;;;;5010386;28;20030;-74
2021/11/01 01:32:55;;;;;;;13.05;2.30;;;;;;;;;;5008637;28;20018;-74
2021/11/01 01:35:21;;;;;;;9.15;1.10;;;;;;;;;;4998026;28;20502;-74
2021/11/01 01:37:52;;;;;;;4.07;0.93;;;;;;;;;;5005261;28;20038;-74
2021/11/01 01:40:18;;;;;;;13.23;2.90;;;;;;;;;;4994211;28;20081;-74
2021/11/01 01:42:45;;;;;;;6.60;2.30;;;;;;;;;;5006862;28;20467;-74
2021/11/01 01:45:11;;;;;;;14.80;1.20;;;;;;;;;;5010271;28;20413;-74
2021/11/01 01:47:40;;;;;;;8.40;1.08;;;;;;;;;;5000049;28;20110;-74
2021/11/01 01:50:06;;;;;;;22.98;2.03;;;;;;;;;;5004796;28;20045;-74
2021/11/01 01:52:32;;;;;;;10.80;1.00;;;;;;;;;;5005264;28;20033;-74
2021/11/01 01:54:58;;;;;;;6.07;1.65;;;;;;;;;;5008466;28;20034;-74
2021/11/01 01:57:25;;;;;;;10.52;1.38;;;;;;;;;;5007447;28;20022;-74
2021/11/01 01:59:51;;;;;;;8.48;1.52;;;;;;;;;;5000047;28;20041;-74
2021/11/01 02:02:17;;;;;;;9.95;1.58;;;;;;;;;;5012440;28;20596;-74
2021/11/01 02:04:44;;;;;;;4.65;1.35;;;;;;;;;;5012858;28;20048;-74
2021/11/01 02:07:23;;;;;;;7.25;0.80;;;;;;;;;;5003990;28;20029;-74
2021/11/01 02:09:55;;;;;;;7.85;1.60;;;;;;;;;;5012283;28;20030;-74
2021/11/01 02:12:27;;;;;;;11.52;1.85;;;;;;;;;;5005129;28;20442;-74
2021/11/01 02:14:56;;;;;;;20.77;1.42;;;;;;;;;;5012079;28;20026;-74
2021/11/01 02:17:25;;;;;;;16.75;2.45;;;;;;;;;;5012351;28;20101;-74
2021/11/01 02:19:53;;;;;;;9.13;1.83;;;;;;;;;;5012212;28;20109;-76
2021/11/01 02:22:34;;;;;;;17.63;1.90;;;;;;;;;;5009058;28;20019;-76
2021/11/01 02:25:05;;;;;;;7.05;1.20;;;;;;;;;;5008476;28;20449;-76
2021/11/01 02:27:34;;;;;;;10.95;2.28;;;;;;;;;;5008285;28;20379;-74
2021/11/01 02:30:01;;;;;;;10.20;1.35;;;;;;;;;;5013744;28;20033;-75
2021/11/01 02:32:27;;;;;;;8.27;1.10;;;;;;;;;;5013683;28;20037;-76
2021/11/01 02:34:54;;;;;;;10.10;0.93;;;;;;;;;;5007816;28;20061;-74
2021/11/01 02:37:20;;;;;;;6.32;1.17;;;;;;;;;;5007050;28;20030;-74
2021/11/01 02:39:54;;;;;;;5.15;1.77;;;;;;;;;;5008269;28;20399;-74
2021/11/01 02:42:21;;;;;;;4.25;0.95;;;;;;;;;;5005997;28;20198;-74
2021/11/01 02:44:51;;;;;;;8.07;1.45;;;;;;;;;;5009568;28;20356;-74
2021/11/01 02:47:17;;;;;;;;;;;;;;;;;;5010590;28;20029;-74
2021/11/01 02:49:43;;;;;;;8.88;1.50;;;;;;;;;;5004669;28;19905;-74
2021/11/01 02:52:08;;;;;;;12.32;1.80;;;;;;;;;;5005668;28;20445;-74
2021/11/01 02:54:34;;;;;;;12.82;1.23;;;;;;;;;;5001558;28;20514;-74
2021/11/01 02:57:02;;;;;;;6.05;1.00;;;;;;;;;;5016221;28;20017;-75
2021/11/01 02:59:28;;;;;;;6.47;1.02;;;;;;;;;;5007683;28;20457;-75
2021/11/01 03:01:54;;;;;;;8.65;1.20;;;;;;;;;;5010080;28;20117;-74
2021/11/01 03:04:20;;;;;;;12.52;3.10;;;;;;;;;;5006167;28;20129;-74
2021/11/01 03:06:47;;;;;;;5.50;1.13;;;;;;;;;;5014293;28;20032;-74
2021/11/01 03:09:13;;;;;;;9.85;1.00;;;;;;;;;;5011275;28;20077;-74
2021/11/01 03:11:39;;;;;;;7.63;1.25;;;;;;;;;;5012353;28;20018;-74
2021/11/01 03:14:05;;;;;;;5.57;0.93;;;;;;;;;;5011445;28;20434;-74
2021/11/01 03:16:31;;;;;;;11.77;2.40;;;;;;;;;;5011216;28;20042;-74
2021/11/01 03:18:58;;;;;;;5.63;0.90;;;;;;;;;;4999516;28;20165;-74
2021/11/01 03:21:25;;;;;;;9.65;1.13;;;;;;;;;;5009198;28;20133;-74
2021/11/01 03:23:52;;;;;;;6.18;1.10;;;;;;;;;;5012921;28;20030;-76
2021/11/01 03:26:21;;;;;;;8.98;1.17;;;;;;;;;;5008790;28;20027;-74
2021/11/01 03:28:49;;;;;;;8.98;1.17;;;;;;;;;;5011371;28;20379;-74
2021/11/01 03:31:16;;;;;;;7.10;0.90;;;;;;;;;;5012257;28;20034;-74
2021/11/01 03:33:42;;;;;;;9.07;1.05;;;;;;;;;;5001509;28;20576;-74
2021/11/01 03:36:09;;;;;;;5.95;2.20;;;;;;;;;;5006370;28;20423;-74
2021/11/01 03:38:37;;;;;;;7.15;0.93;;;;;;;;;;5004271;28;20492;-74
2021/11/01 03:41:08;;;;;;;12.07;1.10;;;;;;;;;;5010382;28;20105;-74
2021/11/01 03:43:38;;;;;;;8.27;1.15;;;;;;;;;;5012186;28;20021;-74
2021/11/01 03:46:06;;;;;;;14.75;2.33;;;;;;;;;;5005595;28;20085;-74
2021/11/01 03:48:37;;;;;;;8.75;1.30;;;;;;;;;;5007340;28;20019;-74
2021/11/01 03:51:36;;;;;;;11.60;1.92;;;;;;;;;;5011956;28;20030;-74
2021/11/01 03:53:59;;;;;;;6.00;0.93;;;;;;;;;;5004671;28;20112;-74
2021/11/01 03:56:25;;;;;;;12.98;1.25;;;;;;;;;;5010599;28;20116;-74
2021/11/01 03:58:51;;;;;;;6.40;1.77;;;;;;;;;;5010207;28;20030;-74
2021/11/01 04:01:17;;;;;;;12.05;1.90;;;;;;;;;;5006624;28;20031;-74
2021/11/01 04:03:43;;;;;;;8.55;1.88;;;;;;;;;;5003849;28;20080;-74
2021/11/01 04:06:09;;;;;;;5.90;1.40;;;;;;;;;;5002060;28;20437;-74
2021/11/01 04:08:36;;;;;;;7.55;1.42;;;;;;;;;;5010269;28;20044;-76
2021/11/01 04:11:02;;;;;;;6.88;1.27;;;;;;;;;;5010308;28;20025;-76
2021/11/01 04:13:28;;;;;;;12.20;1.58;;;;;;;;;;5005872;28;20025;-76
2021/11/01 04:16:00;;;;;;;16.88;1.05;;;;;;;;;;5001670;28;20386;-76
2021/11/01 04:21:11;;;;;;;13.45;1.60;;;;;;;;;;5008343;28;20114;-74
2021/11/01 04:23:37;;;;;;;11.07;1.60;;;;;;;;;;5011407;28;20471;-76
2021/11/01 04:26:03;;;;;;;11.48;1.40;;;;;;;;;;5008818;28;20034;-74
2021/11/01 04:28:30;;;;;;;9.05;1.30;;;;;;;;;;5009644;28;20417;-74
2021/11/01 04:31:12;;;;;;;9.35;1.20;;;;;;;;;;5002471;28;20030;-74
2021/11/01 04:33:40;;;;;;;8.20;1.48;;;;;;;;;;5010586;28;20125;-74
2021/11/01 04:36:06;;;;;;;10.98;1.63;;;;;;;;;;5011218;28;20022;-74
2021/11/01 04:44:13;;;;;;;7.57;1.75;;;;;;;;;;5003437;28;20475;-74
2021/11/01 04:54:56;;;;;;;11.23;0.63;;;;;;;;;;5004887;28;20127;-76
2021/11/01 04:57:22;;;;;;;14.00;1.70;;;;;;;;;;5003864;28;20487;-76
2021/11/01 04:59:49;;;;;;;12.00;1.40;;;;;;;;;;5004519;28;20088;-76
2021/11/01 05:02:16;;;;;;;8.15;1.40;;;;;;;;;;5010116;28;20032;-74
2021/11/01 05:04:44;;;;;;;11.48;1.17;;;;;;;;;;5006419;28;20022;-75
2021/11/01 05:07:10;;;;;;;10.15;2.35;;;;;;;;;;5006777;28;20109;-76
2021/11/01 05:14:53;;;;;;;8.38;1.30;;;;;;;;;;5008277;28;20541;-76
2021/11/01 05:22:42;;;;;;;8.20;1.15;;;;;;;;;;5006597;28;20038;-74
2021/11/01 05:25:25;;;;;;;12.80;2.75;;;;;;;;;;5008410;28;20096;-74
2021/11/01 05:30:40;;;;;;;7.32;2.15;;;;;;;;;;5007897;28;20083;-76
2021/11/01 05:35:37;;;;;;;5.75;0.85;;;;;;;;;;5013654;28;20034;-76
2021/11/01 05:38:04;;;;;;;4.78;1.23;;;;;;;;;;5013839;28;20036;-76
2021/11/01 05:40:30;;;;;;;8.43;0.80;;;;;;;;;;5012922;28;20030;-76
2021/11/01 05:42:56;;;;;;;12.45;1.50;;;;;;;;;;5013183;28;20104;-76
2021/11/01 05:45:22;;;;;;;12.13;1.10;;;;;;;;;;5012368;28;20427;-74
2021/11/01 05:47:56;;;;;;;8.05;1.52;;;;;;;;;;5013398;28;20382;-76
2021/11/01 05:50:24;;;;;;;8.93;1.50;;;;;;;;;;5010998;28;20027;-74
2021/11/01 05:52:50;;;;;;;9.48;1.35;;;;;;;;;;5013473;28;20018;-74
2021/11/01 05:55:31;;;;;;;5.80;1.08;;;;;;;;;;5013493;28;20041;-75
2021/11/01 05:58:06;;;;;;;4.05;1.45;;;;;;;;;;5012713;28;20475;-75
2021/11/01 06:13:30;;;;;;;8.38;1.40;;;;;;;;;;5012982;28;20030;-76
2021/11/01 06:15:58;;;;;;;6.03;1.55;;;;;;;;;;5010968;28;20038;-75
2021/11/01 06:18:35;;;;;;;10.52;0.77;;;;;;;;;;5013225;28;20038;-75
2021/11/01 06:21:01;;;;;;;11.30;0.93;;;;;;;;;;5012809;28;20021;-75
2021/11/01 06:23:27;;;;;;;7.88;1.40;;;;;;;;;;5010623;28;20041;-75
2021/11/01 06:25:52;;;;;;;12.52;1.30;;;;;;;;;;5012310;28;20459;-75
2021/11/01 06:28:19;;;;;;;7.97;1.17;;;;;;;;;;5005663;28;20017;-75
2021/11/01 06:30:58;;;;;;;6.30;0.68;;;;;;;;;;4998291;28;20077;-75
2021/11/01 06:42:29;;;;;;;10.95;1.20;;;;;;;;;;5005690;28;20402;-75
2021/11/01 06:44:41;;;;;;;12.18;1.65;;;;;;;;;;4992290;28;20096;-75
2021/11/01 06:50:07;;;;;;;8.48;0.90;;;;;;;;;;5006800;28;20109;-75
2021/11/01 07:14:48;;;;;;;6.43;0.90;;;;;;;;;;4930939;29;20082;-76
2021/11/01 07:17:20;;;;;;;4.50;0.70;;;;;;;;;;4930146;29;20122;-77
2021/11/01 08:17:38;;;;;;;8.02;0.95;;;;;;;;;;5005606;28;20481;-76
2021/11/01 08:17:50;;;;;;;3.83;0.80;;;;;;;;;;5006017;28;20052;-76
2021/11/01 08:23:07;;;;;;;3.95;0.65;;;;;;;;;;5011566;28;20056;-73
2021/11/01 08:26:27;;;;;;;5.22;0.75;;;;;;;;;;5001905;28;20428;-73
2021/11/01 08:28:26;;;;;;;5.55;0.90;;;;;;;;;;5000845;28;20466;-74
2021/11/01 08:39:16;;;;;;;9.10;1.10;;;;;;;;;;5006289;28;20049;-73
2021/11/01 08:44:52;;;;;;;6.15;0.55;;;;;;;;;;5004065;28;20041;-73
2021/11/01 08:47:46;;;;;;;6.40;1.00;;;;;;;;;;5005433;28;20383;-78
2021/11/01 08:50:33;;;;;;;5.53;0.88;;;;;;;;;;4992313;28;20030;-80
2021/11/01 09:01:42;;;;;;;2.70;0.60;;;;;;;;;;5006662;28;20044;-77
2021/11/01 09:20:49;;;;;;;5.53;0.45;;;;;;;;;;4997475;28;20121;-78
2021/11/01 09:36:27;;;;;;;4.05;0.70;;;;;;;;;;5005303;28;20041;-74
2021/11/01 09:38:58;;;;;;;4.70;0.93;;;;;;;;;;5007012;28;20029;-74
2021/11/01 09:41:25;;;;;;;10.35;2.03;;;;;;;;;;4994268;28;20415;-74
2021/11/01 09:43:54;;;;;;;2.78;0.28;;;;;;;;;;5006806;28;20022;-74
2021/11/01 09:46:21;;;;;;;2.35;0.40;;;;;;;;;;4997088;28;20026;-74
2021/11/01 09:48:49;;;;;;;2.67;0.60;;;;;;;;;;5001178;28;20133;-74
2021/11/01 09:51:15;;;;;;;4.45;0.93;;;;;;;;;;5007355;28;20029;-74
2021/11/01 09:53:46;;;;;;;2.63;0.38;;;;;;;;;;5007713;28;20034;-74
2021/11/01 10:01:23;;;;;;;2.13;0.60;;;;;;;;;;5006064;28;20157;-74
2021/11/01 10:03:50;;;;;;;2.20;0.30;;;;;;;;;;5004013;28;20038;-73
2021/11/01 10:06:26;;;;;;;3.15;0.40;;;;;;;;;;5009104;28;20023;-74
2021/11/01 10:09:00;;;;;;;4.00;0.73;;;;;;;;;;5002382;28;20018;-73
2021/11/01 10:11:29;;;;;;;10.05;0.52;;;;;;;;;;5004198;28;20525;-73
2021/11/01 10:13:56;;;;;;;1.45;0.20;;;;;;;;;;5005013;28;20026;-74
2021/11/01 10:19:28;;;;;;;2.90;0.35;;;;;;;;;;5008729;28;20056;-73
2021/11/01 10:21:56;;;;;;;8.75;0.55;;;;;;;;;;5000791;28;20109;-73
2021/11/01 10:24:24;;;;;;;5.15;1.70;;;;;;;;;;5001274;28;20019;-73
2021/11/01 10:26:51;;;;;;;3.25;0.30;;;;;;;;;;5008604;28;20053;-72
2021/11/01 10:29:17;;;;;;;4.35;0.50;;;;;;;;;;5009090;28;20022;-73
2021/11/01 10:31:44;;;;;;;2.90;0.55;;;;;;;;;;5009875;28;20083;-73
2021/11/01 10:34:12;;;;;;;5.57;1.00;;;;;;;;;;5011727;28;20517;-73
2021/11/01 10:36:39;;;;;;;8.95;1.17;;;;;;;;;;5010556;28;20026;-72
2021/11/01 10:39:07;;;;;;;6.40;0.65;;;;;;;;;;5002791;28;20519;-72
2021/11/01 10:41:47;;;;;;;3.53;0.30;;;;;;;;;;5008393;28;20037;-73
2021/11/01 10:44:45;;;;;;;4.15;0.55;;;;;;;;;;5008485;28;20041;-73
2021/11/01 10:47:34;;;;;;;2.40;0.45;;;;;;;;;;5005062;28;20104;-73
2021/11/01 11:15:11;;;;;;;1.60;0.20;;;;;;;;;;5000021;28;20096;-73
2021/11/01 11:23:26;;;;;;;1.02;0.20;;;;;;;;;;5011931;28;20030;-73
2021/11/01 11:25:58;;;;;;;1.95;0.63;;;;;;;;;;5010157;28;20029;-73
2021/11/01 11:31:22;;;;;;;4.03;0.57;;;;;;;;;;5008560;28;20041;-73
2021/11/01 11:37:25;;;;;;;3.55;0.20;;;;;;;;;;5009406;28;20025;-73
2021/11/01 11:40:18;;;;;;;1.63;0.40;;;;;;;;;;5008712;28;20088;-73
2021/11/01 11:42:48;;;;;;;3.15;0.32;;;;;;;;;;4994103;28;20073;-72
2021/11/01 11:48:23;;;;;;;4.20;0.28;;;;;;;;;;5009490;28;20033;-73
2021/11/01 11:50:50;;;;;;;4.07;0.75;;;;;;;;;;5008756;28;20073;-73
2021/11/01 11:53:18;;;;;;;7.78;1.02;;;;;;;;;;5006292;28;20065;-73
2021/11/01 11:55:45;;;;;;;2.97;0.85;;;;;;;;;;5010136;28;20030;-75
2021/11/01 11:58:13;;;;;;;4.00;0.40;;;;;;;;;;5003792;28;20084;-75
2021/11/01 12:00:39;;;;;;;4.90;0.45;;;;;;;;;;5008688;28;20036;-73
2021/11/01 12:03:09;;;;;;;2.88;0.52;;;;;;;;;;5005571;28;20022;-72
2021/11/01 12:05:39;;;;;;;4.63;0.65;;;;;;;;;;5008778;28;20307;-73
2021/11/01 12:08:22;;;;;;;5.63;0.60;;;;;;;;;;5006632;28;20026;-72
2021/11/01 12:18:49;;;;;;;1.55;0.30;;;;;;;;;;5004087;28;20408;-72
2021/11/01 12:21:15;;;;;;;3.70;0.60;;;;;;;;;;5008727;28;20459;-72
2021/11/01 12:23:42;;;;;;;2.97;0.47;;;;;;;;;;5008473;28;20439;-72
2021/11/01 12:26:09;;;;;;;2.88;0.50;;;;;;;;;;5008992;28;20021;-72
2021/11/01 12:28:35;;;;;;;4.55;0.47;;;;;;;;;;5000833;28;20049;-72
2021/11/01 12:31:01;;;;;;;4.22;0.30;;;;;;;;;;4998624;28;20490;-72
2021/11/01 12:33:29;;;;;;;3.78;0.55;;;;;;;;;;5003567;28;20034;-72
2021/11/01 12:35:59;;;;;;;3.63;0.30;;;;;;;;;;5005619;28;20117;-72
2021/11/01 12:38:39;;;;;;;1.73;0.20;;;;;;;;;;5005295;28;20498;-72
2021/11/01 12:41:15;;;;;;;3.63;0.40;;;;;;;;;;5004033;28;20068;-72
2021/11/01 12:44:30;;;;;;;2.20;0.30;;;;;;;;;;5001280;28;20022;-72
2021/11/01 12:49:46;;;;;;;2.95;0.70;;;;;;;;;;5008254;28;20033;-72
2021/11/01 12:56:59;;;;;;;4.88;0.57;;;;;;;;;;5004943;28;20044;-72
2021/11/01 12:57:47;;;;;;;3.40;0.50;;;;;;;;;;5004005;28;20041;-71
2021/11/01 13:00:14;;;;;;;1.67;0.28;;;;;;;;;;5003650;28;20391;-71
2021/11/01 13:02:42;;;;;;;2.78;0.43;;;;;;;;;;5007178;28;20437;-71
2021/11/01 13:05:12;;;;;;;5.30;0.57;;;;;;;;;;5016188;28;20087;-72
2021/11/01 13:10:20;;;;;;;7.15;0.52;;;;;;;;;;5009930;28;19913;-72
2021/11/01 13:18:13;;;;;;;3.63;0.60;;;;;;;;;;5007876;28;20491;-72
2021/11/01 13:20:49;;;;;;;1.73;0.47;;;;;;;;;;5007431;28;20064;-72
2021/11/01 13:23:15;;;;;;;2.63;0.70;;;;;;;;;;5007192;28;20045;-72
2021/11/01 13:36:38;;;;;;;2.95;0.80;;;;;;;;;;4994271;28;20041;-72
2021/11/01 13:39:07;;;;;;;6.03;0.82;;;;;;;;;;5005207;28;20048;-71
2021/11/01 13:41:33;;;;;;;3.17;0.65;;;;;;;;;;4995547;28;20538;-72
2021/11/01 13:44:07;;;;;;;3.08;0.80;;;;;;;;;;5008622;28;20018;-72
2021/11/01 13:46:33;;;;;;;5.80;0.55;;;;;;;;;;5003293;28;20125;-73
2021/11/01 13:48:58;;;;;;;1.95;0.47;;;;;;;;;;4997883;28;20449;-72
2021/11/01 13:51:29;;;;;;;5.55;0.90;;;;;;;;;;5008872;28;20121;-74
2021/11/01 13:56:31;;;;;;;;;;;;;;;;;;5006049;28;20038;-74
2021/11/01 13:59:03;;;;;;;5.15;0.75;;;;;;;;;;5010243;28;19914;-74
2021/11/01 14:02:01;;;;;;;8.13;0.70;;;;;;;;;;5006826;28;20518;-71
2021/11/01 14:10:57;;;;;;;5.47;0.88;;;;;;;;;;5013597;28;20479;-71
2021/11/01 14:12:55;;;;;;;4.72;0.70;;;;;;;;;;5013211;28;20436;-74
2021/11/01 14:15:58;;;;;;;4.60;0.60;;;;;;;;;;5010026;28;20056;-73
2021/11/01 14:32:30;;;;;;;2.15;0.77;;;;;;;;;;5012840;28;20513;-73
2021/11/01 14:35:19;;;;;;;6.28;0.80;;;;;;;;;;5002735;28;20037;-73
2021/11/01 14:57:50;;;;;;;5.38;0.90;;;;;;;;;;5010623;28;20562;-73
2021/11/01 15:13:32;;;;;;;4.18;0.75;;;;;;;;;;5010925;28;20022;-73
2021/11/01 15:18:50;;;;;;;3.15;0.50;;;;;;;;;;5007510;28;20046;-73
2021/11/01 15:21:25;;;;;;;3.25;0.98;;;;;;;;;;5010281;28;20026;-71
2021/11/01 16:20:32;;;;;;;0.73;0.17;;;;;;;;;;5009888;28;20041;-73
2021/11/01 16:25:43;;;;;;;1.95;0.80;;;;;;;;;;5010264;28;20036;-73
2021/11/01 16:28:09;;;;;;;0.80;0.20;;;;;;;;;;5005855;28;20521;-73
2021/11/01 16:30:36;;;;;;;0.30;0.15;;;;;;;;;;5008916;28;20380;-73
2021/11/01 16:33:06;;;;;;;0.50;0.20;;;;;;;;;;5006890;28;20022;-73
2021/11/01 16:35:38;;;;;;;1.65;0.70;;;;;;;;;;5010516;28;22035;-73
2021/11/01 16:40:30;;;;;;;2.92;0.93;;;;;;;;;;5010290;28;20487;-73
2021/11/01 16:42:56;;;;;;;4.80;0.55;;;;;;;;;;5007160;28;20479;-73
2021/11/01 16:45:30;;;;;;;3.97;1.30;;;;;;;;;;5009364;28;20030;-73
2021/11/01 16:47:57;;;;;;;9.15;1.90;;;;;;;;;;5010437;28;20335;-73
2021/11/01 16:50:23;;;;;;;4.60;1.73;;;;;;;;;;5008962;28;20088;-73
2021/11/01 16:52:50;;;;;;;7.82;1.50;;;;;;;;;;5008412;28;20018;-73
2021/11/01 16:55:21;;;;;;;6.22;1.67;;;;;;;;;;5008726;28;20077;-73
2021/11/01 16:57:54;;;;;;;3.75;0.50;;;;;;;;;;5008028;28;20048;-73
2021/11/01 17:03:08;;;;;;;1.27;0.32;;;;;;;;;;5009229;28;20112;-73
2021/11/01 17:08:57;;;;;;;2.72;0.25;;;;;;;;;;5011394;28;20129;-73
2021/11/01 17:21:42;;;;;;;0.93;0.20;;;;;;;;;;5007524;28;20465;-73
2021/11/01 17:24:13;;;;;;;2.58;0.38;;;;;;;;;;4995873;28;20026;-73
2021/11/01 17:29:37;;;;;;;1.02;0.20;;;;;;;;;;5005556;28;20069;-73
2021/11/01 17:35:10;;;;;;;3.38;0.30;;;;;;;;;;5003999;28;20045;-73
2021/11/01 18:43:33;;;;;;;2.97;1.63;;;;;;;;;;5008662;28;20476;-73
2021/11/01 18:46:14;;;;;;;3.22;2.03;;;;;;;;;;5004568;28;20022;-74
2021/11/01 18:51:31;;;;;;;3.17;1.20;;;;;;;;;;5006447;28;20040;-76
2021/11/01 18:54:16;;;;;;;7.13;1.80;;;;;;;;;;4997501;28;20045;-75
2021/11/01 18:56:42;;;;;;;5.07;1.65;;;;;;;;;;5009449;28;20030;-75
2021/11/01 18:59:10;;;;;;;2.88;1.67;;;;;;;;;;5013007;28;20026;-75
2021/11/01 19:01:38;;;;;;;3.80;1.58;;;;;;;;;;5007784;28;20073;-75
2021/11/01 19:04:09;;;;;;;4.43;1.50;;;;;;;;;;5013672;28;20100;-75
2021/11/01 19:06:42;;;;;;;4.00;1.40;;;;;;;;;;5017710;28;20026;-75
2021/11/01 19:10:00;;;;;;;4.53;1.83;;;;;;;;;;5004913;28;20546;-75
2021/11/01 20:15:51;;;;;;;3.25;1.55;;;;;;;;;;5007895;28;20026;-75
2021/11/01 21:25:38;;;;;;;7.47;2.60;;;;;;;;;;5009926;28;20037;-75
2021/11/01 21:28:04;;;;;;;6.35;2.60;;;;;;;;;;5006238;28;20061;-75
2021/11/01 21:30:30;;;;;;;14.35;2.88;;;;;;;;;;4996073;28;20426;-75
2021/11/01 21:32:56;;;;;;;6.05;2.88;;;;;;;;;;5008614;28;20081;-75
2021/11/01 21:35:28;;;;;;;5.32;2.42;;;;;;;;;;5004046;28;20049;-75
2021/11/01 21:37:54;;;;;;;5.35;2.42;;;;;;;;;;5009171;28;20022;-75
2021/11/01 21:40:20;;;;;;;5.32;2.53;;;;;;;;;;5010229;28;20030;-75
2021/11/01 21:42:46;;;;;;;6.65;2.03;;;;;;;;;;5006891;28;20037;-75
2021/11/01 21:45:12;;;;;;;6.30;2.65;;;;;;;;;;5009761;28;20030;-75
2021/11/01 21:47:39;;;;;;;6.30;1.98;;;;;;;;;;5010460;28;20079;-75
2021/11/01 21:50:06;;;;;;;4.75;1.88;;;;;;;;;;4997145;28;20117;-75
2021/11/01 21:52:33;;;;;;;4.35;2.00;;;;;;;;;;5010580;28;20112;-75
2021/11/01 21:55:00;;;;;;;4.43;2.40;;;;;;;;;;4994857;28;20034;-75
2021/11/01 22:21:56;;;;;;;7.85;2.67;;;;;;;;;;5010648;28;20030;-75
2021/11/01 22:32:31;;;;;;;5.88;2.70;;;;;;;;;;5007525;28;20096;-75
2021/11/01 22:42:44;;;;;;;5.00;3.05;;;;;;;;;;5008668;28;20483;-75
2021/11/01 22:45:23;;;;;;;4.80;2.92;;;;;;;;;;5004309;28;20121;-75
2021/11/01 22:59:00;;;;;;;7.13;3.75;;;;;;;;;;5010665;28;20451;-75
2021/11/01 23:01:28;;;;;;;5.03;3.42;;;;;;;;;;5011848;28;20092;-75
2021/11/01 23:33:28;;;;;;;10.32;4.50;;;;;;;;;;5005106;28;20072;-75
2021/11/01 23:35:55;;;;;;;7.95;4.13;;;;;;;;;;4999336;28;20484;-74
2021/11/01 23:38:21;;;;;;;11.25;4.63;;;;;;;;;;5007925;28;20017;-75
2021/11/01 23:40:47;;;;;;;10.45;4.78;;;;;;;;;;5011245;28;20109;-75
2021/11/01 23:43:13;;;;;;;10.38;4.97;;;;;;;;;;4998512;28;20033;-75
2021/11/01 23:45:43;;;;;;;8.75;4.57;;;;;;;;;;5011378;28;20030;-75
2021/11/01 23:48:10;;;;;;;9.80;4.80;;;;;;;;;;5001308;28;20018;-75
2021/11/01 23:50:36;;;;;;;11.68;4.55;;;;;;;;;;5011294;28;20037;-75
2021/11/01 23:53:12;;;;;;;15.20;7.13;;;;;;;;;;5010424;28;20022;-75
2021/11/01 23:55:39;;;;;;;9.10;4.88;;;;;;;;;;5007646;28;20025;-75
2021/11/01 23:58:05;;;;;;;12.13;4.80;;;;;;;;;;5003856;28;20030;-74
